Time;durP1;ratioP1;P1;durP2;ratioP2;P2;SDS_P1;SDS_P2;PMS_P1;PMS_P2;Temp;Humidity;BMP_temperature;BMP_pressure;BME280_temperature;BME280_humidity;BME280_pressure;Samples;Min_cycle;Max_cycle;Signal;HPM_P1;HPM_P2
2022/03/11 00:00:29;;;;;;;12.00;6.07;;;-0.90;99.90;;;;;;5206550;28;20024;-77
2022/03/11 00:03:00;;;;;;;11.05;5.80;;;-0.80;99.90;;;;;;5206592;28;20461;-72
2022/03/11 00:05:31;;;;;;;12.48;5.63;;;-0.60;99.90;;;;;;5221778;28;20022;-71
2022/03/11 00:08:03;;;;;;;16.05;5.80;;;-0.40;99.90;;;;;;5221812;28;20488;-72
2022/03/11 00:10:34;;;;;;;15.75;6.15;;;-0.40;99.90;;;;;;5206535;28;20034;-79
2022/03/11 00:13:05;;;;;;;16.50;6.72;;;-0.80;99.90;;;;;;5206550;28;20021;-78
2022/03/11 00:15:36;;;;;;;17.60;8.95;;;-1.10;99.90;;;;;;5206502;28;20037;-77
2022/03/11 00:18:07;;;;;;;14.75;7.72;;;-1.40;99.90;;;;;;5206651;28;20409;-78
2022/03/11 00:20:37;;;;;;;19.80;8.18;;;-1.40;99.90;;;;;;5206490;28;20021;-80
2022/03/11 00:23:08;;;;;;;16.05;8.00;;;-1.40;99.90;;;;;;5206350;28;20435;-74
2022/03/11 00:25:39;;;;;;;19.55;7.13;;;-1.10;99.90;;;;;;5205905;28;20022;-77
2022/03/11 00:28:10;;;;;;;16.33;6.90;;;-0.60;99.90;;;;;;5205110;28;20389;-74
2022/03/11 00:30:41;;;;;;;13.93;6.03;;;-0.60;99.90;;;;;;5205020;28;20037;-72
2022/03/11 00:33:12;;;;;;;14.25;7.15;;;-0.50;99.90;;;;;;5205784;28;20025;-72
2022/03/11 00:35:43;;;;;;;15.80;7.57;;;-0.50;99.90;;;;;;5206365;28;20113;-71
2022/03/11 00:38:14;;;;;;;14.15;6.55;;;-0.50;99.90;;;;;;5206312;28;20096;-82
2022/03/11 00:40:44;;;;;;;17.45;7.00;;;-0.70;99.90;;;;;;5221557;28;20463;-82
2022/03/11 00:43:16;;;;;;;13.80;6.90;;;-0.70;99.90;;;;;;5206259;28;20381;-78
2022/03/11 00:45:47;;;;;;;18.00;6.78;;;-0.60;99.90;;;;;;5206079;28;20029;-81
2022/03/11 00:48:18;;;;;;;17.95;6.75;;;-0.80;99.90;;;;;;5206227;28;20045;-72
2022/03/11 00:50:49;;;;;;;13.05;7.43;;;-0.90;99.90;;;;;;5206162;28;20030;-71
2022/03/11 00:53:20;;;;;;;13.30;7.30;;;-1.00;99.90;;;;;;5206162;28;20026;-71
2022/03/11 00:55:51;;;;;;;16.33;7.35;;;-1.10;99.90;;;;;;5206078;28;20025;-71
2022/03/11 00:58:22;;;;;;;15.43;6.82;;;-1.00;99.90;;;;;;5206151;28;20030;-83
2022/03/11 01:00:52;;;;;;;12.77;6.22;;;-0.90;99.90;;;;;;5206003;28;20033;-74
2022/03/11 01:03:23;;;;;;;14.23;6.25;;;-0.80;99.90;;;;;;5205979;28;20040;-72
2022/03/11 01:05:54;;;;;;;13.80;6.47;;;-0.70;99.90;;;;;;5205804;28;20030;-72
2022/03/11 01:08:25;;;;;;;11.88;5.50;;;-0.60;99.90;;;;;;5206547;28;20082;-72
2022/03/11 01:10:56;;;;;;;11.52;5.85;;;-0.70;99.90;;;;;;5209462;28;20068;-81
2022/03/11 01:13:27;;;;;;;10.43;6.03;;;-0.50;99.90;;;;;;5209411;28;20524;-81
2022/03/11 01:15:57;;;;;;;18.48;6.78;;;-0.60;99.90;;;;;;5209258;28;20120;-71
2022/03/11 01:18:28;;;;;;;12.02;6.32;;;-0.70;99.90;;;;;;5209650;28;20026;-72
2022/03/11 01:20:59;;;;;;;13.43;6.75;;;-0.60;99.90;;;;;;5209488;28;20033;-82
2022/03/11 01:23:30;;;;;;;12.07;5.80;;;-0.60;99.90;;;;;;5208207;28;20479;-71
2022/03/11 01:26:01;;;;;;;13.43;6.28;;;-0.90;99.90;;;;;;5209342;28;20026;-71
2022/03/11 01:28:32;;;;;;;14.52;7.38;;;-0.80;99.90;;;;;;5208008;28;20034;-71
2022/03/11 01:31:03;;;;;;;14.00;7.18;;;-0.80;99.90;;;;;;5207985;28;20029;-71
2022/03/11 01:33:33;;;;;;;14.05;7.10;;;-0.90;99.90;;;;;;5209420;28;20081;-72
2022/03/11 01:36:07;;;;;;;17.05;7.10;;;-0.90;99.90;;;;;;5209104;28;20111;-72
2022/03/11 01:38:39;;;;;;;21.52;6.63;;;-0.80;99.90;;;;;;5209221;28;20068;-72
2022/03/11 01:41:09;;;;;;;10.43;6.97;;;-0.90;99.90;;;;;;5209077;28;20083;-72
2022/03/11 01:43:51;;;;;;;14.35;7.53;;;-0.90;99.90;;;;;;5207769;28;20025;-81
2022/03/11 01:46:22;;;;;;;23.67;9.23;;;-1.00;99.90;;;;;;5208863;28;20026;-81
2022/03/11 01:48:53;;;;;;;18.95;8.40;;;-1.10;99.90;;;;;;5208999;28;20040;-72
2022/03/11 01:51:25;;;;;;;20.90;9.00;;;-1.20;99.90;;;;;;5208850;28;20469;-80
2022/03/11 01:53:57;;;;;;;19.80;9.05;;;-1.30;99.90;;;;;;5208961;28;20030;-75
2022/03/11 01:56:28;;;;;;;18.40;9.52;;;-1.30;99.90;;;;;;5208772;28;20412;-72
2022/03/11 01:58:59;;;;;;;21.75;10.40;;;-1.50;99.90;;;;;;5208764;28;20029;-72
2022/03/11 02:01:30;;;;;;;18.58;10.30;;;-1.30;99.90;;;;;;5207344;28;20022;-72
2022/03/11 02:04:01;;;;;;;19.67;10.00;;;-1.40;99.90;;;;;;5208727;28;20033;-72
2022/03/11 02:06:32;;;;;;;17.80;9.23;;;-1.40;99.90;;;;;;5208549;28;20536;-72
2022/03/11 02:09:03;;;;;;;27.85;11.00;;;-1.40;99.90;;;;;;5208569;28;20069;-81
2022/03/11 02:11:36;;;;;;;25.67;8.82;;;-1.40;99.90;;;;;;5208512;28;20021;-82
2022/03/11 02:14:07;;;;;;;17.02;8.05;;;-1.30;99.90;;;;;;5208485;28;20021;-71
2022/03/11 02:16:40;;;;;;;18.85;8.23;;;-1.30;99.90;;;;;;5208423;28;20135;-72
2022/03/11 02:19:10;;;;;;;16.33;8.18;;;-1.20;99.90;;;;;;5207074;28;20025;-72
2022/03/11 02:21:46;;;;;;;17.90;6.75;;;-1.10;99.90;;;;;;5208404;28;20368;-72
2022/03/11 02:24:17;;;;;;;14.60;6.20;;;-1.10;99.90;;;;;;5207040;28;20026;-72
2022/03/11 02:26:48;;;;;;;17.08;6.18;;;-0.90;99.90;;;;;;5208118;28;20025;-72
2022/03/11 02:29:18;;;;;;;11.93;4.95;;;-0.90;99.90;;;;;;5206845;28;20064;-72
2022/03/11 02:31:49;;;;;;;13.20;6.15;;;-0.80;99.90;;;;;;5208130;28;20025;-72
2022/03/11 02:34:20;;;;;;;14.20;6.05;;;-0.80;99.90;;;;;;5207771;28;20037;-71
2022/03/11 02:36:51;;;;;;;14.02;5.00;;;-0.80;99.90;;;;;;5207978;28;20477;-81
2022/03/11 02:39:22;;;;;;;10.82;5.30;;;-0.80;99.90;;;;;;5208061;28;20018;-81
2022/03/11 02:41:53;;;;;;;11.35;5.30;;;-0.90;99.90;;;;;;5207919;28;20380;-71
2022/03/11 02:44:24;;;;;;;14.82;6.00;;;-1.00;99.90;;;;;;5207935;28;20101;-71
2022/03/11 02:46:55;;;;;;;15.30;5.65;;;-0.90;99.90;;;;;;5207727;28;20478;-71
2022/03/11 02:49:27;;;;;;;17.08;5.18;;;-0.90;99.90;;;;;;5207469;28;20091;-82
2022/03/11 02:51:58;;;;;;;7.20;3.92;;;-0.90;99.90;;;;;;5223097;28;20096;-80
2022/03/11 02:54:29;;;;;;;14.77;5.03;;;-0.90;99.90;;;;;;5207736;28;20053;-79
2022/03/11 02:57:00;;;;;;;15.02;5.13;;;-0.90;99.90;;;;;;5207643;28;20465;-78
2022/03/11 02:59:31;;;;;;;13.45;5.07;;;-0.90;99.90;;;;;;5207670;28;20075;-71
2022/03/11 03:02:02;;;;;;;13.60;4.88;;;-0.90;99.90;;;;;;5206210;28;20125;-72
2022/03/11 03:04:32;;;;;;;10.85;4.88;;;-1.00;99.90;;;;;;5207371;28;20021;-71
2022/03/11 03:07:03;;;;;;;15.85;5.57;;;-1.00;99.90;;;;;;5207333;28;20037;-80
2022/03/11 03:09:41;;;;;;;14.13;5.20;;;-1.00;99.90;;;;;;5207303;28;20078;-80
2022/03/11 03:12:12;;;;;;;13.98;5.28;;;-1.00;99.90;;;;;;5207385;28;20059;-71
2022/03/11 03:14:43;;;;;;;15.40;5.57;;;-1.10;99.90;;;;;;5222715;28;20065;-72
2022/03/11 03:17:14;;;;;;;14.43;5.95;;;-1.10;99.90;;;;;;5207325;28;20432;-80
2022/03/11 03:19:45;;;;;;;15.80;5.47;;;-1.20;99.90;;;;;;5222585;28;20102;-71
2022/03/11 03:22:16;;;;;;;14.00;6.60;;;-1.20;99.90;;;;;;5207180;28;20106;-71
2022/03/11 03:24:47;;;;;;;13.85;6.15;;;-1.20;99.90;;;;;;5222601;28;20073;-81
2022/03/11 03:27:18;;;;;;;14.38;5.53;;;-1.20;99.90;;;;;;5206998;28;20033;-80
2022/03/11 03:29:49;;;;;;;13.07;5.93;;;-1.20;99.90;;;;;;5205573;28;20037;-71
2022/03/11 03:32:20;;;;;;;13.65;5.95;;;-1.20;99.90;;;;;;5206633;28;20070;-71
2022/03/11 03:34:51;;;;;;;13.65;6.55;;;-1.20;99.90;;;;;;5206608;28;20049;-73
2022/03/11 03:37:21;;;;;;;17.88;5.97;;;-1.30;99.90;;;;;;5206928;28;20036;-73
2022/03/11 03:39:52;;;;;;;16.33;7.32;;;-1.30;99.90;;;;;;5206572;28;20473;-71
2022/03/11 03:42:23;;;;;;;19.80;7.70;;;-1.30;99.90;;;;;;5206882;28;20026;-79
2022/03/11 03:44:54;;;;;;;15.85;7.15;;;-1.30;99.90;;;;;;5222037;28;20408;-71
2022/03/11 03:47:25;;;;;;;11.02;6.40;;;-1.40;99.90;;;;;;5205161;28;20461;-72
2022/03/11 03:49:55;;;;;;;11.60;6.35;;;-1.40;99.90;;;;;;5206725;28;20030;-81
2022/03/11 03:52:27;;;;;;;16.33;6.95;;;-1.40;99.90;;;;;;5206439;28;20036;-72
2022/03/11 03:54:58;;;;;;;17.73;6.22;;;-1.40;99.90;;;;;;5206654;28;20032;-79
2022/03/11 03:57:30;;;;;;;20.10;6.85;;;-1.40;99.90;;;;;;5205386;28;20021;-71
2022/03/11 04:00:01;;;;;;;16.92;5.80;;;-1.60;99.90;;;;;;5206647;28;20085;-71
2022/03/11 04:02:32;;;;;;;14.02;6.47;;;-1.50;99.90;;;;;;5206585;28;20095;-71
2022/03/11 04:05:04;;;;;;;14.82;5.60;;;-1.60;99.90;;;;;;5206372;28;20100;-71
2022/03/11 04:07:35;;;;;;;13.23;6.18;;;-1.60;99.90;;;;;;5206617;28;20504;-72
2022/03/11 04:10:06;;;;;;;13.45;6.35;;;-1.60;99.90;;;;;;5206273;28;20041;-74
2022/03/11 04:12:37;;;;;;;22.30;6.78;;;-1.50;99.90;;;;;;5205267;28;20037;-72
2022/03/11 04:15:09;;;;;;;12.50;5.85;;;-1.60;99.90;;;;;;5206455;28;20029;-79
2022/03/11 04:17:40;;;;;;;13.23;6.13;;;-1.60;99.90;;;;;;5205278;28;20611;-80
2022/03/11 04:20:11;;;;;;;17.65;6.63;;;-1.70;99.90;;;;;;5206477;28;20104;-71
2022/03/11 04:22:44;;;;;;;21.10;6.40;;;-1.60;99.90;;;;;;5206514;28;20025;-80
2022/03/11 04:25:15;;;;;;;17.23;6.93;;;-1.60;99.90;;;;;;5206273;28;20397;-78
2022/03/11 04:27:46;;;;;;;11.38;6.30;;;-1.80;99.90;;;;;;5206458;28;20096;-70
2022/03/11 04:30:17;;;;;;;15.65;7.70;;;-1.90;99.90;;;;;;5206267;28;20049;-78
2022/03/11 04:32:48;;;;;;;16.52;7.32;;;-1.90;99.90;;;;;;5206376;28;20425;-72
2022/03/11 04:35:19;;;;;;;19.90;6.97;;;-1.90;99.90;;;;;;5204711;28;20139;-71
2022/03/11 04:37:50;;;;;;;14.60;7.07;;;-1.80;99.90;;;;;;5205063;28;20373;-74
2022/03/11 04:40:21;;;;;;;14.93;7.57;;;-1.80;99.90;;;;;;5221626;28;20021;-74
2022/03/11 04:42:51;;;;;;;19.58;8.35;;;-1.90;99.90;;;;;;5221696;28;20021;-71
2022/03/11 04:45:22;;;;;;;16.02;7.35;;;-1.80;99.90;;;;;;5209888;28;20372;-82
2022/03/11 04:47:53;;;;;;;13.05;6.28;;;-2.00;99.90;;;;;;5210197;28;20029;-80
2022/03/11 04:50:25;;;;;;;15.00;6.15;;;-2.00;99.90;;;;;;5210071;28;20143;-79
2022/03/11 04:52:56;;;;;;;14.50;6.75;;;-1.80;99.90;;;;;;5210175;28;20029;-71
2022/03/11 04:55:27;;;;;;;14.07;6.78;;;-1.90;99.90;;;;;;5210022;28;20026;-79
2022/03/11 04:57:58;;;;;;;14.80;6.68;;;-1.90;99.90;;;;;;5225390;28;20030;-71
2022/03/11 05:00:29;;;;;;;18.45;8.40;;;-1.80;99.90;;;;;;5209801;28;20622;-75
2022/03/11 05:03:01;;;;;;;14.88;5.47;;;-1.80;99.90;;;;;;5209792;28;20030;-72
2022/03/11 05:05:31;;;;;;;13.90;5.93;;;-1.80;99.90;;;;;;5209655;28;20104;-72
2022/03/11 05:08:02;;;;;;;19.50;7.03;;;-1.60;99.90;;;;;;5225136;28;20128;-72
2022/03/11 05:10:33;;;;;;;16.50;7.45;;;-1.60;99.90;;;;;;5209674;28;20025;-72
2022/03/11 05:13:04;;;;;;;14.65;7.30;;;-1.60;99.90;;;;;;5209673;28;20021;-71
2022/03/11 05:15:38;;;;;;;12.93;6.07;;;-1.60;99.90;;;;;;5209612;28;20057;-80
2022/03/11 05:18:08;;;;;;;21.90;7.20;;;-1.70;99.90;;;;;;5208279;28;20029;-80
2022/03/11 05:20:39;;;;;;;14.73;7.65;;;-1.70;99.90;;;;;;5209662;28;20844;-72
2022/03/11 05:23:12;;;;;;;20.05;7.97;;;-1.80;99.90;;;;;;5224869;28;20034;-72
2022/03/11 05:25:43;;;;;;;18.33;8.00;;;-2.00;99.90;;;;;;5224553;28;20017;-81
2022/03/11 05:28:14;;;;;;;12.15;7.07;;;-2.00;99.90;;;;;;5209216;28;20032;-79
2022/03/11 05:30:44;;;;;;;14.45;6.72;;;-2.00;99.90;;;;;;5209335;28;20362;-81
2022/03/11 05:33:15;;;;;;;12.48;6.65;;;-2.00;99.90;;;;;;5209018;28;20021;-72
2022/03/11 06:10:23;;;;;;;19.45;8.85;;;-1.80;99.90;;;;;;5308323;27;20418;-75
2022/03/11 06:12:54;;;;;;;13.02;6.72;;;-1.80;99.90;;;;;;5306798;28;20084;-75
2022/03/11 06:15:25;;;;;;;16.63;7.28;;;-1.60;99.90;;;;;;5308229;28;20050;-75
2022/03/11 06:17:56;;;;;;;16.13;7.10;;;-1.60;99.90;;;;;;5308177;28;20102;-75
2022/03/11 06:20:29;;;;;;;14.32;6.80;;;-1.60;99.90;;;;;;5306732;28;20053;-76
2022/03/11 06:23:00;;;;;;;13.70;5.43;;;-1.70;99.90;;;;;;5341222;27;20019;-76
2022/03/11 06:25:31;;;;;;;12.57;5.97;;;-1.70;99.90;;;;;;5307955;27;20034;-75
2022/03/11 06:28:02;;;;;;;18.55;6.80;;;-1.60;99.90;;;;;;5307994;28;20024;-75
2022/03/11 06:30:33;;;;;;;17.73;5.93;;;-1.40;99.90;;;;;;5306712;28;20474;-75
2022/03/11 06:33:04;;;;;;;14.52;6.07;;;-1.30;99.90;;;;;;5306698;28;20066;-76
2022/03/11 06:35:35;;;;;;;12.10;5.97;;;-1.10;99.90;;;;;;5307791;28;20073;-75
2022/03/11 06:38:06;;;;;;;16.17;6.03;;;-1.20;99.90;;;;;;5307553;28;20038;-75
2022/03/11 06:40:37;;;;;;;14.75;6.57;;;-1.10;99.90;;;;;;5307472;28;20027;-75
2022/03/11 06:43:07;;;;;;;13.15;6.25;;;-1.40;99.90;;;;;;5307829;28;20011;-75
2022/03/11 06:45:38;;;;;;;17.20;6.28;;;-1.50;99.90;;;;;;5307770;28;20027;-75
2022/03/11 06:48:09;;;;;;;18.05;6.50;;;-1.50;99.90;;;;;;5306020;28;20059;-75
2022/03/11 06:50:40;;;;;;;14.38;6.35;;;-1.50;99.90;;;;;;5307562;28;20106;-75
2022/03/11 06:53:11;;;;;;;17.08;6.75;;;-1.60;99.90;;;;;;5306231;28;20408;-75
2022/03/11 06:55:42;;;;;;;17.10;5.93;;;-1.60;99.90;;;;;;5307504;27;20075;-76
2022/03/11 06:58:13;;;;;;;13.57;6.43;;;-1.60;99.90;;;;;;5307111;27;20032;-75
2022/03/11 07:00:43;;;;;;;19.02;7.00;;;-1.40;99.90;;;;;;5305993;28;20412;-75
2022/03/11 07:03:14;;;;;;;14.18;6.68;;;-1.40;99.90;;;;;;5306125;28;20024;-75
2022/03/11 07:05:45;;;;;;;17.45;7.20;;;-1.40;99.90;;;;;;5307293;27;20050;-75
2022/03/11 07:08:16;;;;;;;15.27;6.80;;;-1.30;99.90;;;;;;5306825;27;20050;-75
2022/03/11 07:10:47;;;;;;;12.85;6.05;;;-1.30;99.90;;;;;;5294817;28;20073;-75
2022/03/11 07:13:17;;;;;;;12.30;6.30;;;-1.00;99.90;;;;;;5292929;28;20020;-76
2022/03/11 07:15:49;;;;;;;10.05;4.70;;;-0.70;99.90;;;;;;5292900;28;20023;-75
2022/03/11 07:18:20;;;;;;;12.30;4.88;;;-0.90;99.90;;;;;;5292809;28;20055;-75
2022/03/11 07:20:51;;;;;;;13.45;4.57;;;-0.80;99.90;;;;;;5292650;28;20051;-75
2022/03/11 07:23:23;;;;;;;10.65;5.22;;;-1.00;99.90;;;;;;5291524;28;20077;-75
2022/03/11 07:25:54;;;;;;;13.27;4.90;;;-0.90;99.90;;;;;;5291430;28;20489;-75
2022/03/11 07:28:27;;;;;;;12.32;4.00;;;-1.00;99.90;;;;;;5291421;28;20024;-75
2022/03/11 07:30:58;;;;;;;9.00;3.97;;;-1.00;99.90;;;;;;5292497;28;20417;-75
2022/03/11 07:33:28;;;;;;;12.52;4.22;;;-1.10;99.90;;;;;;5291397;28;20019;-75
2022/03/11 07:35:59;;;;;;;9.38;4.07;;;-0.90;99.90;;;;;;5292559;28;20448;-75
2022/03/11 07:38:31;;;;;;;10.23;3.47;;;-0.70;99.90;;;;;;5290896;28;20032;-75
2022/03/11 07:41:01;;;;;;;8.45;3.40;;;-0.80;99.90;;;;;;5292341;28;20076;-75
2022/03/11 07:43:32;;;;;;;10.55;3.70;;;-0.90;99.90;;;;;;5292257;28;20015;-75
2022/03/11 07:46:03;;;;;;;5.75;2.92;;;-0.80;99.90;;;;;;5292351;28;20023;-75
2022/03/11 07:48:34;;;;;;;12.57;3.47;;;-0.90;99.90;;;;;;5291915;28;20155;-76
2022/03/11 07:51:06;;;;;;;8.30;3.85;;;-0.80;99.90;;;;;;5291919;28;20542;-75
2022/03/11 07:53:37;;;;;;;7.72;2.90;;;-0.70;99.90;;;;;;5290909;28;20012;-75
2022/03/11 07:56:10;;;;;;;8.05;3.40;;;-0.80;99.90;;;;;;5291944;28;20038;-76
2022/03/11 07:58:41;;;;;;;10.73;4.00;;;-0.60;99.90;;;;;;5291961;28;20071;-75
2022/03/11 08:01:13;;;;;;;9.60;4.10;;;-0.60;99.90;;;;;;5291923;28;20015;-80
2022/03/11 08:03:44;;;;;;;8.93;2.97;;;-0.80;99.90;;;;;;5290644;28;20038;-75
2022/03/11 08:06:15;;;;;;;8.32;3.72;;;-0.60;99.90;;;;;;5291979;28;20032;-75
2022/03/11 08:08:46;;;;;;;8.23;3.83;;;-0.50;99.90;;;;;;5290052;28;20050;-75
2022/03/11 08:11:16;;;;;;;10.50;4.13;;;-0.60;99.90;;;;;;5291686;28;20020;-75
2022/03/11 08:13:48;;;;;;;8.98;3.80;;;-0.60;99.90;;;;;;5291785;27;20043;-75
2022/03/11 08:16:20;;;;;;;7.28;3.75;;;-0.50;99.90;;;;;;5290378;28;20026;-76
2022/03/11 08:18:51;;;;;;;7.43;3.33;;;0.30;99.90;;;;;;5291641;28;20161;-75
2022/03/11 08:21:21;;;;;;;10.55;4.03;;;0.00;99.90;;;;;;5290472;28;20094;-75
2022/03/11 08:23:52;;;;;;;7.80;3.17;;;0.10;99.90;;;;;;5291549;28;20038;-75
2022/03/11 08:26:25;;;;;;;7.22;2.55;;;-0.40;99.90;;;;;;5290159;28;20484;-75
2022/03/11 08:28:55;;;;;;;10.30;3.15;;;-0.40;99.90;;;;;;5291494;28;20024;-75
2022/03/11 08:31:27;;;;;;;4.78;2.60;;;0.10;99.90;;;;;;5291447;28;20018;-76
2022/03/11 08:33:57;;;;;;;5.80;3.15;;;0.40;99.90;;;;;;5291296;28;20035;-77
2022/03/11 08:36:28;;;;;;;10.02;3.28;;;0.30;99.90;;;;;;5291157;28;20035;-76
2022/03/11 08:38:59;;;;;;;7.20;3.15;;;0.00;99.90;;;;;;5290957;28;20043;-76
2022/03/11 08:41:31;;;;;;;5.68;3.10;;;-0.40;99.90;;;;;;5290954;28;20068;-76
2022/03/11 08:44:05;;;;;;;8.95;3.40;;;0.70;99.90;;;;;;5291024;28;20031;-77
2022/03/11 08:46:37;;;;;;;7.00;3.53;;;1.20;99.90;;;;;;5291023;28;20069;-76
2022/03/11 08:49:07;;;;;;;6.47;4.03;;;1.30;99.90;;;;;;5291057;28;20043;-77
2022/03/11 08:51:39;;;;;;;8.75;3.97;;;1.20;99.90;;;;;;5289657;28;20058;-78
2022/03/11 08:54:10;;;;;;;7.97;3.33;;;0.90;99.90;;;;;;5290984;28;20110;-77
2022/03/11 08:56:41;;;;;;;11.45;3.08;;;0.40;99.90;;;;;;5290843;28;20111;-78
2022/03/11 08:59:12;;;;;;;9.00;2.80;;;0.90;99.90;;;;;;5290813;28;20032;-77
2022/03/11 09:01:43;;;;;;;10.48;4.32;;;0.00;99.90;;;;;;5290557;28;20016;-77
2022/03/11 09:04:14;;;;;;;10.82;3.08;;;1.20;99.90;;;;;;5290782;28;20382;-77
2022/03/11 09:06:45;;;;;;;8.23;3.35;;;0.50;99.90;;;;;;5290732;28;20087;-77
2022/03/11 09:09:16;;;;;;;8.65;3.13;;;0.00;99.90;;;;;;5290241;28;20077;-77
2022/03/11 09:11:47;;;;;;;11.30;3.75;;;0.50;99.90;;;;;;5290572;28;20034;-77
2022/03/11 09:14:18;;;;;;;16.77;4.32;;;0.00;99.90;;;;;;5290628;28;20035;-77
2022/03/11 09:16:49;;;;;;;10.93;3.80;;;-0.20;99.90;;;;;;5290559;28;20053;-77
2022/03/11 09:19:20;;;;;;;8.95;4.53;;;-0.20;99.90;;;;;;5290320;28;20032;-78
2022/03/11 09:21:50;;;;;;;9.95;3.83;;;-0.30;99.90;;;;;;5290317;28;20062;-77
2022/03/11 09:24:21;;;;;;;10.10;3.83;;;-0.40;99.90;;;;;;5290450;28;20101;-77
2022/03/11 09:26:53;;;;;;;7.97;3.35;;;-0.10;99.90;;;;;;5290274;28;20059;-77
2022/03/11 09:29:28;;;;;;;9.65;3.70;;;-0.40;99.90;;;;;;5290281;28;20024;-78
2022/03/11 09:31:59;;;;;;;8.85;3.35;;;-0.40;99.90;;;;;;5290314;28;20019;-77
2022/03/11 09:34:30;;;;;;;8.32;3.47;;;-0.20;99.90;;;;;;5290042;28;20031;-77
2022/03/11 09:37:01;;;;;;;7.70;3.10;;;-0.60;99.90;;;;;;5290112;28;20030;-77
2022/03/11 09:39:32;;;;;;;10.70;4.28;;;-0.70;99.90;;;;;;5289804;28;20044;-77
2022/03/11 09:42:04;;;;;;;9.02;4.20;;;-0.40;99.90;;;;;;5288833;28;20024;-77
2022/03/11 09:44:36;;;;;;;7.70;3.47;;;-0.50;99.90;;;;;;5290088;28;20041;-77
2022/03/11 09:47:07;;;;;;;8.15;3.50;;;-0.80;99.90;;;;;;5290060;28;20031;-78
2022/03/11 09:49:38;;;;;;;10.15;3.88;;;-0.80;99.90;;;;;;5289989;28;20047;-77
2022/03/11 09:52:09;;;;;;;10.27;4.53;;;-0.80;99.90;;;;;;5288859;28;20062;-77
2022/03/11 09:54:40;;;;;;;9.27;4.20;;;-0.90;99.90;;;;;;5289973;28;20020;-77
2022/03/11 09:57:18;;;;;;;10.02;4.25;;;-0.60;99.90;;;;;;5289934;28;20020;-77
2022/03/11 09:59:50;;;;;;;7.25;3.80;;;-0.90;99.90;;;;;;5289714;28;20032;-77
2022/03/11 10:02:21;;;;;;;9.30;4.25;;;-0.70;99.90;;;;;;5289877;28;20055;-77
2022/03/11 10:04:56;;;;;;;8.43;3.42;;;-0.80;99.90;;;;;;5289794;28;20047;-77
2022/03/11 10:07:30;;;;;;;9.48;4.47;;;-0.40;99.90;;;;;;5289769;28;20458;-77
2022/03/11 10:10:11;;;;;;;9.98;4.93;;;-0.70;99.90;;;;;;5289519;28;20063;-77
2022/03/11 10:12:45;;;;;;;10.30;4.32;;;-0.70;99.90;;;;;;5289885;28;20032;-77
2022/03/11 10:15:18;;;;;;;10.25;4.32;;;-0.50;99.90;;;;;;5289718;28;20019;-77
2022/03/11 10:17:52;;;;;;;13.65;4.57;;;-0.30;99.90;;;;;;5289803;28;20485;-77
2022/03/11 10:20:23;;;;;;;10.40;4.10;;;0.10;99.90;;;;;;5289567;28;20070;-77
2022/03/11 10:22:55;;;;;;;7.50;3.20;;;-0.30;99.90;;;;;;5289817;28;20504;-76
2022/03/11 10:25:30;;;;;;;9.10;4.65;;;-0.60;99.90;;;;;;5289660;28;20023;-77
2022/03/11 10:28:13;;;;;;;6.97;3.95;;;-0.70;99.90;;;;;;5288387;28;20049;-77
2022/03/11 10:30:44;;;;;;;8.00;3.08;;;-0.70;99.90;;;;;;5289616;28;20069;-76
2022/03/11 10:33:16;;;;;;;9.15;3.17;;;-0.60;99.90;;;;;;5289544;28;20103;-77
2022/03/11 10:35:48;;;;;;;7.80;3.78;;;-0.30;99.90;;;;;;5289696;28;20024;-77
2022/03/11 10:38:25;;;;;;;6.97;3.25;;;-0.30;99.90;;;;;;5289287;28;20032;-77
2022/03/11 10:40:58;;;;;;;8.55;3.10;;;0.00;99.90;;;;;;5289494;28;20038;-77
2022/03/11 10:43:31;;;;;;;10.10;3.85;;;0.20;99.90;;;;;;5288170;28;20061;-77
2022/03/11 10:46:06;;;;;;;11.23;3.92;;;1.00;99.90;;;;;;5292178;28;20028;-77
2022/03/11 10:48:41;;;;;;;8.38;3.90;;;0.70;99.90;;;;;;5293551;28;20054;-77
2022/03/11 10:51:37;;;;;;;8.13;3.42;;;0.50;99.90;;;;;;5293383;28;20028;-77
2022/03/11 10:54:08;;;;;;;10.00;3.80;;;0.10;99.90;;;;;;5293391;28;20031;-77
2022/03/11 10:56:40;;;;;;;7.47;3.53;;;0.10;99.90;;;;;;5293191;28;20015;-77
2022/03/11 10:59:14;;;;;;;6.55;3.05;;;0.40;99.90;;;;;;5293192;28;20534;-77
2022/03/11 11:01:45;;;;;;;6.53;3.90;;;0.20;99.90;;;;;;5293138;27;20038;-77
2022/03/11 11:04:17;;;;;;;10.88;3.45;;;0.00;99.90;;;;;;5293208;28;20038;-77
2022/03/11 11:06:48;;;;;;;10.27;3.67;;;-0.50;99.90;;;;;;5293213;28;20039;-77
2022/03/11 11:09:23;;;;;;;9.98;3.75;;;-0.50;99.90;;;;;;5292541;28;20051;-77
2022/03/11 11:11:54;;;;;;;7.90;4.10;;;-0.40;99.90;;;;;;5292843;28;20024;-77
2022/03/11 11:14:25;;;;;;;8.38;4.20;;;-0.10;99.90;;;;;;5292917;28;20068;-77
2022/03/11 11:16:59;;;;;;;6.80;3.60;;;-0.40;99.90;;;;;;5292761;28;20123;-77
2022/03/11 11:19:32;;;;;;;8.77;4.10;;;-0.70;99.90;;;;;;5292770;28;20024;-76
2022/03/11 11:22:04;;;;;;;6.85;3.47;;;-0.70;99.90;;;;;;5292720;28;20463;-76
2022/03/11 11:24:38;;;;;;;7.50;3.60;;;-0.70;99.90;;;;;;5292717;28;20106;-76
2022/03/11 11:27:11;;;;;;;6.38;3.33;;;-0.40;99.90;;;;;;5292619;28;20049;-76
2022/03/11 11:29:42;;;;;;;7.82;3.80;;;-0.60;99.90;;;;;;5292601;28;20112;-76
2022/03/11 11:32:15;;;;;;;9.45;4.32;;;-0.40;99.90;;;;;;5292609;28;20027;-76
2022/03/11 11:34:46;;;;;;;10.38;4.32;;;-0.30;99.90;;;;;;5292548;28;20102;-76
2022/03/11 11:37:38;;;;;;;14.98;4.65;;;-0.10;99.90;;;;;;5292565;28;20584;-76
2022/03/11 11:40:27;;;;;;;11.18;4.53;;;0.00;99.90;;;;;;5292445;28;20047;-78
2022/03/11 11:43:28;;;;;;;10.35;4.75;;;0.00;99.90;;;;;;5292466;28;20110;-76
2022/03/11 11:46:17;;;;;;;8.80;4.18;;;-0.40;99.90;;;;;;5292425;28;20020;-77
2022/03/11 11:48:48;;;;;;;7.97;3.92;;;-0.60;99.90;;;;;;5292304;28;20096;-77
2022/03/11 11:51:40;;;;;;;11.60;4.75;;;-0.90;99.90;;;;;;5291031;28;20047;-76
2022/03/11 11:54:13;;;;;;;12.60;5.85;;;-1.00;99.90;;;;;;5292057;28;20065;-76
2022/03/11 11:56:55;;;;;;;8.27;5.05;;;-0.70;99.90;;;;;;5291985;28;20030;-76
2022/03/11 11:59:32;;;;;;;13.57;6.30;;;-0.10;99.90;;;;;;5292011;28;20115;-77
2022/03/11 12:02:24;;;;;;;9.50;5.38;;;-0.30;99.90;;;;;;5292025;28;20493;-77
2022/03/11 12:04:54;;;;;;;12.20;6.80;;;-0.60;99.90;;;;;;5292157;28;20031;-76
2022/03/11 12:07:45;;;;;;;10.68;5.45;;;-0.40;99.90;;;;;;5291850;28;20103;-77
2022/03/11 12:10:23;;;;;;;11.18;5.75;;;-0.50;99.90;;;;;;5291707;28;20067;-76
2022/03/11 12:12:57;;;;;;;8.85;5.07;;;-0.50;99.90;;;;;;5291726;28;20027;-77
2022/03/11 12:15:32;;;;;;;10.05;5.32;;;-0.40;99.90;;;;;;5290542;28;20114;-77
2022/03/11 12:18:03;;;;;;;6.75;4.38;;;-0.30;99.90;;;;;;5291557;28;20121;-77
2022/03/11 12:20:47;;;;;;;13.57;5.93;;;-0.30;99.90;;;;;;5291614;28;20543;-77
2022/03/11 12:23:19;;;;;;;9.30;4.55;;;-0.10;99.90;;;;;;5291620;28;20047;-76
2022/03/11 12:25:58;;;;;;;10.02;4.78;;;-0.60;99.90;;;;;;5291592;28;20022;-76
2022/03/11 12:28:35;;;;;;;11.40;5.55;;;-0.60;99.90;;;;;;5291548;28;20027;-76
2022/03/11 12:31:09;;;;;;;8.63;5.57;;;-0.70;99.90;;;;;;5291468;28;20110;-76
2022/03/11 12:33:45;;;;;;;13.60;5.65;;;-0.70;99.90;;;;;;5291345;28;20020;-76
2022/03/11 12:36:22;;;;;;;10.25;5.60;;;-0.90;99.90;;;;;;5291427;28;20485;-77
2022/03/11 12:38:53;;;;;;;12.93;6.00;;;-0.70;99.90;;;;;;5290965;28;20453;-76
2022/03/11 12:41:27;;;;;;;14.55;6.05;;;-0.60;99.90;;;;;;5291134;28;20028;-77
2022/03/11 12:44:00;;;;;;;12.35;6.18;;;-0.50;99.90;;;;;;5291275;28;20070;-77
2022/03/11 12:46:30;;;;;;;17.80;6.53;;;-0.40;99.90;;;;;;5291205;28;20019;-76
2022/03/11 12:49:01;;;;;;;12.38;5.50;;;-0.10;99.90;;;;;;5291075;28;20077;-77
2022/03/11 12:51:32;;;;;;;10.52;4.78;;;-0.50;99.90;;;;;;5290982;28;20020;-76
2022/03/11 12:54:15;;;;;;;7.18;4.50;;;-0.60;99.90;;;;;;5290981;28;20103;-76
2022/03/11 12:56:46;;;;;;;10.85;5.28;;;-0.80;99.90;;;;;;5290868;28;20019;-76
2022/03/11 12:59:17;;;;;;;9.10;4.97;;;-0.40;99.90;;;;;;5290728;28;20034;-76
2022/03/11 13:01:51;;;;;;;10.10;4.88;;;-0.50;99.90;;;;;;5290741;28;20362;-78
2022/03/11 13:04:23;;;;;;;10.60;5.65;;;-0.30;99.90;;;;;;5290745;28;20055;-77
2022/03/11 13:07:01;;;;;;;11.50;5.22;;;-0.50;99.90;;;;;;5290668;28;20424;-77
2022/03/11 13:09:32;;;;;;;11.07;5.20;;;-0.60;99.90;;;;;;5289807;28;20102;-77
2022/03/11 13:12:23;;;;;;;11.70;6.40;;;-0.50;99.90;;;;;;5290644;28;20058;-76
2022/03/11 13:15:16;;;;;;;10.98;5.63;;;-0.30;99.90;;;;;;5289325;28;20020;-77
2022/03/11 13:17:47;;;;;;;8.48;4.95;;;-0.10;99.90;;;;;;5290478;28;20492;-76
2022/03/11 13:21:05;;;;;;;10.68;5.38;;;-0.50;99.90;;;;;;5290304;28;20031;-78
2022/03/11 13:23:41;;;;;;;11.38;4.78;;;-0.30;99.90;;;;;;5284532;28;20055;-77
2022/03/11 13:26:18;;;;;;;13.27;5.45;;;-0.50;99.90;;;;;;5290315;27;20016;-77
2022/03/11 13:28:52;;;;;;;8.98;4.82;;;-0.30;99.90;;;;;;5290394;28;20019;-77
2022/03/11 13:31:28;;;;;;;12.77;4.72;;;-0.50;99.90;;;;;;5290300;28;20524;-77
2022/03/11 13:34:02;;;;;;;7.78;4.32;;;-0.20;99.90;;;;;;5290254;28;20382;-77
2022/03/11 13:36:35;;;;;;;9.55;4.40;;;-0.50;99.90;;;;;;5290249;28;20030;-77
2022/03/11 13:39:16;;;;;;;10.38;5.00;;;-0.10;99.90;;;;;;5288660;28;20061;-77
2022/03/11 13:41:47;;;;;;;9.90;4.85;;;-0.20;99.90;;;;;;5289972;28;20031;-76